Time;durP1;ratioP1;P1;durP2;ratioP2;P2;SDS_P1;SDS_P2;PMS_P1;PMS_P2;Temp;Humidity;BMP_temperature;BMP_pressure;BME280_temperature;BME280_humidity;BME280_pressure;Samples;Min_cycle;Max_cycle;Signal;HPM_P1;HPM_P2
2022/04/30 00:00:51;;;;;;;9.65;3.72;;;;;;;6.64;96.00;102865.56;5046783;28;20132;-50
2022/04/30 00:03:24;;;;;;;8.85;3.83;;;;;;;6.55;96.34;102863.97;5050328;28;20102;-52
2022/04/30 00:05:55;;;;;;;6.43;3.50;;;;;;;6.49;97.47;102867.56;5051736;28;20049;-50
2022/04/30 00:08:24;;;;;;;7.80;4.07;;;;;;;6.40;98.18;102865.06;5052067;28;20535;-50
2022/04/30 00:10:53;;;;;;;8.32;4.97;;;;;;;6.41;98.33;102861.59;5051445;28;20091;-51
2022/04/30 00:13:22;;;;;;;12.27;5.32;;;;;;;6.42;98.19;102860.69;5052032;28;20144;-49
2022/04/30 00:15:50;;;;;;;11.65;5.85;;;;;;;6.43;98.65;102859.78;5051414;28;20388;-49
2022/04/30 00:18:18;;;;;;;12.85;5.50;;;;;;;6.39;98.19;102863.34;5051742;28;20039;-52
2022/04/30 00:20:47;;;;;;;10.35;4.75;;;;;;;6.45;98.13;102858.03;5050760;28;20037;-51
2022/04/30 00:23:23;;;;;;;9.07;4.13;;;;;;;6.39;98.89;102861.63;5048045;28;20056;-48
2022/04/30 00:25:53;;;;;;;11.70;5.03;;;;;;;6.42;98.43;102863.28;5049542;28;20450;-49
2022/04/30 00:28:23;;;;;;;10.63;3.80;;;;;;;6.44;97.59;102853.69;5048379;28;20049;-49
2022/04/30 00:30:52;;;;;;;8.23;3.97;;;;;;;6.37;98.29;102862.53;5047525;28;20072;-51
2022/04/30 00:33:20;;;;;;;10.82;4.15;;;;;;;6.37;98.13;102852.91;5051224;28;20512;-52
2022/04/30 00:35:48;;;;;;;8.00;3.63;;;;;;;6.45;97.93;102851.94;5047682;28;20131;-50
2022/04/30 00:38:18;;;;;;;9.98;3.80;;;;;;;6.34;98.66;102852.09;5049619;28;20119;-49
2022/04/30 00:40:46;;;;;;;8.98;3.97;;;;;;;6.32;98.80;102856.50;5051373;28;20037;-52
2022/04/30 00:43:15;;;;;;;12.13;4.25;;;;;;;6.30;98.67;102847.78;5050824;28;20063;-48
2022/04/30 00:45:47;;;;;;;9.18;4.18;;;;;;;6.21;98.21;102847.06;5051341;28;20139;-51
2022/04/30 00:48:16;;;;;;;9.73;4.32;;;;;;;6.28;98.19;102846.97;5051291;28;20060;-50
2022/04/30 00:50:45;;;;;;;10.73;4.22;;;;;;;6.19;98.46;102846.22;5051322;28;20116;-49
2022/04/30 00:53:19;;;;;;;8.77;3.95;;;;;;;6.19;98.38;102842.72;5051221;28;20103;-49
2022/04/30 00:55:49;;;;;;;12.68;4.32;;;;;;;6.10;98.62;102843.75;5051282;28;20044;-49
2022/04/30 00:58:21;;;;;;;8.55;4.18;;;;;;;6.00;99.27;102837.78;5045888;28;20059;-47
2022/04/30 01:00:50;;;;;;;9.35;3.78;;;;;;;5.98;99.68;102838.69;5048566;28;20041;-47
2022/04/30 01:03:19;;;;;;;9.18;4.32;;;;;;;5.88;100.00;102836.16;5051176;28;20052;-49
2022/04/30 01:05:49;;;;;;;8.60;4.55;;;;;;;5.98;100.00;102833.47;5051508;28;20489;-50
2022/04/30 01:08:19;;;;;;;8.60;3.97;;;;;;;5.91;100.00;102833.50;5046289;28;20053;-48
2022/04/30 01:10:48;;;;;;;14.18;4.32;;;;;;;5.78;100.00;102842.41;5047667;28;20056;-48
2022/04/30 01:13:16;;;;;;;9.30;4.10;;;;;;;5.81;100.00;102833.66;5051089;28;20049;-52
2022/04/30 01:15:45;;;;;;;9.93;4.63;;;;;;;5.79;100.00;102836.28;5049179;28;20037;-49
2022/04/30 01:18:14;;;;;;;13.15;5.68;;;;;;;5.76;100.00;102831.97;5047493;28;20103;-48
2022/04/30 01:20:47;;;;;;;8.73;4.30;;;;;;;5.79;100.00;102831.06;5049882;28;20033;-49
2022/04/30 01:23:18;;;;;;;10.85;4.65;;;;;;;5.83;100.00;102821.44;5050892;28;20128;-55
2022/04/30 01:25:47;;;;;;;12.10;4.75;;;;;;;5.75;100.00;102816.31;5050855;28;20053;-52
2022/04/30 01:28:17;;;;;;;10.88;4.72;;;;;;;5.72;100.00;102817.22;5050962;28;20520;-50
2022/04/30 01:30:46;;;;;;;10.38;4.60;;;;;;;5.70;100.00;102820.72;5051099;28;20523;-53
2022/04/30 01:38:48;;;;;;;12.40;5.28;;;;;;;5.66;100.00;102817.31;5054880;28;20045;-52
2022/04/30 01:41:17;;;;;;;10.48;5.10;;;;;;;5.60;100.00;102812.16;5054468;28;20427;-49
2022/04/30 01:43:46;;;;;;;9.18;4.72;;;;;;;5.63;100.00;102806.94;5054484;28;20061;-49
2022/04/30 01:46:14;;;;;;;9.70;5.13;;;;;;;5.66;100.00;102808.59;5054449;28;20226;-52
2022/04/30 01:48:45;;;;;;;12.57;5.40;;;;;;;5.69;100.00;102805.97;5054440;28;20121;-53
2022/04/30 01:51:14;;;;;;;11.80;5.10;;;;;;;5.54;100.00;102807.88;5051511;28;20106;-48
2022/04/30 01:53:43;;;;;;;12.93;6.03;;;;;;;5.62;100.00;102805.19;5049786;28;20055;-50
2022/04/30 01:56:13;;;;;;;12.35;5.68;;;;;;;5.58;100.00;102806.13;5053421;28;20073;-49
2022/04/30 01:58:41;;;;;;;14.70;5.95;;;;;;;5.61;100.00;102803.47;5054289;28;20495;-51
2022/04/30 02:01:10;;;;;;;12.73;6.43;;;;;;;5.53;100.00;102805.31;5054375;28;20049;-50
2022/04/30 02:03:39;;;;;;;11.75;5.95;;;;;;;5.55;100.00;102796.56;5054388;28;20385;-46
2022/04/30 02:06:09;;;;;;;11.95;5.70;;;;;;;5.55;100.00;102798.34;5053030;28;20052;-53
2022/04/30 02:08:37;;;;;;;10.13;5.13;;;;;;;5.52;100.00;102791.41;5054459;28;20500;-50
2022/04/30 02:11:06;;;;;;;11.38;5.70;;;;;;;5.45;100.00;102797.56;5053364;28;20546;-48
2022/04/30 02:13:38;;;;;;;12.55;5.90;;;;;;;5.36;100.00;102790.72;5053189;28;20150;-49
2022/04/30 02:16:08;;;;;;;12.40;5.70;;;;;;;5.38;100.00;102790.69;5050617;28;20048;-48
2022/04/30 02:18:37;;;;;;;14.05;5.50;;;;;;;5.30;100.00;102790.78;5052590;28;20049;-48
2022/04/30 02:21:06;;;;;;;12.00;5.90;;;;;;;5.40;100.00;102788.94;5053913;28;20064;-48
2022/04/30 02:23:35;;;;;;;11.93;6.10;;;;;;;5.33;100.00;102787.28;5054284;28;20041;-51
2022/04/30 02:26:05;;;;;;;13.07;6.03;;;;;;;5.34;100.00;102783.78;5053970;28;20049;-50
2022/04/30 02:28:33;;;;;;;14.23;5.60;;;;;;;5.34;100.00;102784.66;5054218;28;20141;-48
2022/04/30 02:31:03;;;;;;;14.27;6.18;;;;;;;5.36;100.00;102780.28;5053572;28;20053;-49
2022/04/30 02:33:31;;;;;;;14.57;6.20;;;;;;;5.24;100.00;102783.91;5053741;28;20044;-48
2022/04/30 02:36:00;;;;;;;14.93;6.47;;;;;;;5.22;100.00;102775.25;5049796;28;20049;-48
2022/04/30 02:38:28;;;;;;;14.68;6.18;;;;;;;5.22;100.00;102775.25;5050250;28;20098;-51
2022/04/30 02:40:57;;;;;;;11.48;6.00;;;;;;;5.27;100.00;102775.16;5053327;28;20041;-50
2022/04/30 02:43:28;;;;;;;13.57;6.50;;;;;;;5.27;100.00;102774.31;5053395;28;20055;-53
2022/04/30 02:45:56;;;;;;;13.20;6.50;;;;;;;5.31;100.00;102768.19;5053515;28;20068;-49
2022/04/30 02:48:26;;;;;;;12.38;5.90;;;;;;;5.19;100.00;102769.19;5049415;28;20099;-48
2022/04/30 02:50:59;;;;;;;15.88;6.95;;;;;;;5.20;100.00;102765.69;5050052;28;20501;-52
2022/04/30 02:53:27;;;;;;;10.95;5.80;;;;;;;5.27;100.00;102771.72;5053233;28;20045;-49
2022/04/30 02:55:55;;;;;;;13.35;6.65;;;;;;;5.21;100.00;102762.22;5052972;28;20045;-48
2022/04/30 03:01:09;;;;;;;14.05;6.28;;;;;;;5.19;100.00;102757.00;5052905;28;20373;-50
2022/04/30 03:03:40;;;;;;;11.45;5.85;;;;;;;5.20;100.00;102761.34;5053008;28;20045;-49
2022/04/30 03:06:09;;;;;;;14.82;6.72;;;;;;;5.21;100.00;102757.84;5050925;28;20136;-48
2022/04/30 03:08:37;;;;;;;15.30;6.85;;;;;;;5.21;100.00;102757.84;5049636;28;20056;-54
2022/04/30 03:11:07;;;;;;;13.35;6.53;;;;;;;5.21;100.00;102752.63;5052189;28;20053;-48
2022/04/30 03:13:35;;;;;;;11.88;5.95;;;;;;;5.29;100.00;102760.38;5052110;28;20053;-46
2022/04/30 03:21:44;;;;;;;12.10;6.45;;;;;;;5.15;100.00;102747.47;5053057;28;20072;-48
2022/04/30 03:24:15;;;;;;;15.38;6.72;;;;;;;5.02;100.00;102743.31;5052575;28;20500;-48
2022/04/30 03:26:44;;;;;;;14.07;6.57;;;;;;;5.05;100.00;102751.94;5052503;28;20049;-47
2022/04/30 03:29:12;;;;;;;14.40;6.60;;;;;;;5.13;100.00;102749.25;5052214;28;20052;-49
2022/04/30 03:31:41;;;;;;;11.55;6.75;;;;;;;5.08;100.00;102748.44;5052528;28;20110;-51
2022/04/30 03:34:12;;;;;;;13.07;6.78;;;;;;;5.06;100.00;102745.84;5052166;28;20063;-53
2022/04/30 03:36:41;;;;;;;12.25;6.35;;;;;;;5.06;100.00;102742.41;5048543;28;20171;-50
2022/04/30 03:39:10;;;;;;;13.50;5.60;;;;;;;5.10;100.00;102745.81;5049743;28;20044;-48
2022/04/30 03:41:38;;;;;;;11.68;6.25;;;;;;;5.04;100.00;102736.31;5052511;28;20049;-51
2022/04/30 03:44:07;;;;;;;12.10;6.43;;;;;;;5.01;100.00;102733.75;5052400;28;20407;-49
2022/04/30 03:46:36;;;;;;;14.68;6.53;;;;;;;5.02;100.00;102735.50;5049477;28;20377;-51
2022/04/30 03:49:04;;;;;;;14.05;6.35;;;;;;;5.02;100.00;102733.72;5048269;28;20072;-48
2022/04/30 03:51:34;;;;;;;14.15;5.97;;;;;;;4.98;100.00;102731.19;5051375;28;20044;-50
2022/04/30 03:54:03;;;;;;;12.13;5.78;;;;;;;5.05;100.00;102731.06;5050625;28;20040;-52
2022/04/30 03:56:32;;;;;;;13.77;5.55;;;;;;;5.10;100.00;102728.44;5046894;28;20049;-50
2022/04/30 03:59:01;;;;;;;11.50;6.13;;;;;;;4.96;100.00;102731.19;5050260;28;20494;-48
2022/04/30 04:01:30;;;;;;;11.52;6.25;;;;;;;4.89;100.00;102730.41;5051489;28;20928;-50
2022/04/30 04:04:00;;;;;;;10.77;6.10;;;;;;;4.95;100.00;102732.09;5047108;28;20152;-48
2022/04/30 04:06:29;;;;;;;12.15;6.13;;;;;;;4.95;100.00;102732.09;5049365;28;20049;-48
2022/04/30 04:08:59;;;;;;;14.13;6.20;;;;;;;4.96;100.00;102731.19;5051777;28;20045;-49
2022/04/30 04:11:28;;;;;;;12.95;5.65;;;;;;;4.92;100.00;102726.88;5047567;28;20565;-49
2022/04/30 04:19:30;;;;;;;12.18;5.90;;;;;;;4.87;100.00;102739.13;5048380;28;20163;-50
2022/04/30 04:21:59;;;;;;;11.15;6.72;;;;;;;4.86;100.00;102734.78;5050241;28;20087;-48
2022/04/30 04:27:12;;;;;;;13.25;6.38;;;;;;;4.76;100.00;102739.25;5018825;28;20133;-48
2022/04/30 04:29:46;;;;;;;12.57;6.20;;;;;;;4.82;100.00;102741.75;5050236;28;20063;-53
2022/04/30 04:32:14;;;;;;;14.23;6.07;;;;;;;4.82;100.00;102739.16;5051527;28;20045;-46
2022/04/30 04:34:43;;;;;;;12.27;5.95;;;;;;;4.82;100.00;102743.53;5050198;28;20052;-48
2022/04/30 04:37:17;;;;;;;12.40;6.32;;;;;;;4.82;100.00;102744.38;5051375;28;20051;-48
2022/04/30 04:39:46;;;;;;;11.35;6.30;;;;;;;4.78;100.00;102742.69;5050147;28;20045;-50
2022/04/30 04:42:15;;;;;;;14.32;6.72;;;;;;;4.84;100.00;102744.34;5045946;28;20057;-51
2022/04/30 04:44:43;;;;;;;14.90;6.88;;;;;;;4.87;100.00;102744.34;5050090;28;20451;-50
2022/04/30 04:47:13;;;;;;;12.27;6.30;;;;;;;4.89;100.00;102747.78;5051299;28;20504;-50
2022/04/30 04:49:43;;;;;;;13.30;6.00;;;;;;;4.89;100.00;102753.88;5050184;28;20227;-50
2022/04/30 04:52:11;;;;;;;12.93;5.82;;;;;;;4.92;100.00;102752.94;5047700;28;20595;-50
2022/04/30 04:54:40;;;;;;;12.48;5.80;;;;;;;5.06;100.00;102758.91;5049059;28;20060;-47
2022/04/30 04:57:10;;;;;;;15.77;6.68;;;;;;;5.02;100.00;102756.34;5051277;28;20419;-47
2022/04/30 04:59:38;;;;;;;16.73;6.03;;;;;;;5.04;100.00;102759.78;5048066;28;20458;-51
2022/04/30 05:02:07;;;;;;;10.90;6.28;;;;;;;5.07;100.00;102760.63;5050080;28;20048;-47
2022/04/30 05:04:36;;;;;;;10.55;5.78;;;;;;;5.02;100.00;102756.34;5055331;28;20075;-47
2022/04/30 05:07:04;;;;;;;11.27;6.00;;;;;;;5.03;100.00;102760.66;5055277;28;20044;-48
2022/04/30 05:09:33;;;;;;;13.23;6.38;;;;;;;5.06;100.00;102760.66;5055156;28;20049;-49
2022/04/30 05:12:01;;;;;;;12.50;6.50;;;;;;;5.08;100.00;102756.25;5055155;28;20057;-48
2022/04/30 05:14:33;;;;;;;12.27;6.32;;;;;;;5.14;100.00;102764.03;5054951;28;20056;-48
2022/04/30 05:17:02;;;;;;;10.63;5.60;;;;;;;5.18;100.00;102767.44;5055158;28;20053;-51
2022/04/30 05:19:33;;;;;;;12.20;6.18;;;;;;;5.14;100.00;102764.03;5055471;28;20045;-48
2022/04/30 05:22:02;;;;;;;12.90;6.80;;;;;;;5.21;100.00;102767.44;5055270;28;20496;-49
2022/04/30 05:24:32;;;;;;;13.65;5.55;;;;;;;5.32;100.00;102772.53;5054864;28;20045;-50
2022/04/30 05:27:01;;;;;;;16.13;6.30;;;;;;;5.39;100.00;102769.81;5055064;28;20057;-54
2022/04/30 05:29:29;;;;;;;12.07;6.30;;;;;;;5.42;100.00;102768.91;5053750;28;20551;-54
2022/04/30 05:31:59;;;;;;;10.90;5.78;;;;;;;5.49;100.00;102765.31;5054835;28;20045;-48
2022/04/30 05:34:28;;;;;;;11.32;5.72;;;;;;;5.55;100.00;102765.25;5054930;28;20048;-49
2022/04/30 05:36:57;;;;;;;11.77;5.55;;;;;;;5.61;100.00;102763.44;5054770;28;20045;-48
2022/04/30 05:39:26;;;;;;;13.35;6.13;;;;;;;5.67;100.00;102768.56;5054880;28;20045;-55
2022/04/30 05:41:54;;;;;;;14.85;6.28;;;;;;;5.72;100.00;102761.53;5054744;28;20131;-48
2022/04/30 05:44:23;;;;;;;10.95;6.10;;;;;;;5.76;100.00;102769.31;5054817;28;20041;-48
2022/04/30 05:46:51;;;;;;;13.52;6.15;;;;;;;5.84;100.00;102770.97;5054626;28;20491;-48
2022/04/30 05:49:21;;;;;;;13.02;6.28;;;;;;;5.95;100.00;102771.66;5054919;28;20376;-51
2022/04/30 05:51:51;;;;;;;12.35;6.13;;;;;;;6.03;100.00;102761.97;5054574;28;20055;-49
2022/04/30 05:54:19;;;;;;;10.88;6.50;;;;;;;6.13;100.00;102773.16;5054261;28;20049;-48
2022/04/30 05:56:48;;;;;;;14.60;6.07;;;;;;;6.22;100.00;102767.78;5054415;28;20041;-51
2022/04/30 05:59:18;;;;;;;10.85;5.45;;;;;;;6.35;100.00;102772.81;5054552;28;20037;-51
2022/04/30 06:01:46;;;;;;;11.40;5.63;;;;;;;6.47;100.00;102769.13;5055011;28;20045;-51
2022/04/30 06:04:15;;;;;;;8.70;5.20;;;;;;;6.60;100.00;102773.25;5054961;28;20438;-52
2022/04/30 06:06:45;;;;;;;11.15;5.43;;;;;;;6.70;100.00;102772.19;5054034;28;20530;-49
2022/04/30 06:09:14;;;;;;;11.30;5.38;;;;;;;6.82;100.00;102768.50;5053920;28;20049;-51
2022/04/30 06:11:42;;;;;;;9.32;5.47;;;;;;;6.94;100.00;102767.41;5054067;28;20088;-48
2022/04/30 06:14:11;;;;;;;9.55;5.15;;;;;;;7.05;100.00;102768.06;5053222;28;20075;-49
2022/04/30 06:16:39;;;;;;;10.98;5.43;;;;;;;7.16;100.00;102772.19;5055035;28;20045;-48
2022/04/30 06:19:08;;;;;;;11.80;5.47;;;;;;;7.29;100.00;102773.69;5052652;28;20087;-49
2022/04/30 06:21:40;;;;;;;11.85;5.28;;;;;;;7.40;100.00;102776.97;5053202;28;20052;-51
2022/04/30 06:24:10;;;;;;;11.05;4.40;;;;;;;7.53;100.00;102766.22;5053946;28;20052;-53
2022/04/30 06:26:38;;;;;;;11.82;5.13;;;;;;;7.63;100.00;102774.72;5054261;28;20125;-54
2022/04/30 06:29:07;;;;;;;11.82;4.70;;;;;;;7.76;100.00;102766.56;5053972;28;20047;-49
2022/04/30 06:31:36;;;;;;;8.35;4.78;;;;;;;7.84;100.00;102768.13;5057256;28;20045;-50
2022/04/30 06:34:05;;;;;;;9.07;4.25;;;;;;;7.94;99.55;102772.28;5053904;28;20041;-49
2022/04/30 06:36:34;;;;;;;12.10;4.78;;;;;;;8.06;99.46;102763.28;5050068;28;20049;-51
2022/04/30 06:39:02;;;;;;;9.02;4.80;;;;;;;8.21;99.32;102768.13;5049909;28;20041;-50
2022/04/30 06:41:32;;;;;;;8.80;4.22;;;;;;;8.33;97.56;102763.47;5053744;28;20126;-51
2022/04/30 06:44:00;;;;;;;10.40;4.80;;;;;;;8.41;97.58;102765.03;5053308;28;20044;-49
2022/04/30 06:46:28;;;;;;;9.18;4.13;;;;;;;8.51;95.79;102768.31;5053649;28;20041;-48
2022/04/30 06:48:57;;;;;;;9.85;4.43;;;;;;;8.66;95.73;102767.03;5052104;28;20037;-47
2022/04/30 06:51:25;;;;;;;7.95;4.20;;;;;;;8.83;95.38;102771.81;5049968;28;20049;-51
2022/04/30 06:59:28;;;;;;;8.68;3.55;;;;;;;9.36;90.31;102762.50;5053373;28;20052;-52
2022/04/30 07:02:00;;;;;;;7.88;3.30;;;;;;;9.55;88.71;102758.41;5053265;28;20475;-51
2022/04/30 07:04:29;;;;;;;;;;;;;;;9.63;85.64;102756.41;5053959;28;20045;-47
2022/04/30 07:06:58;;;;;;;8.25;3.28;;;;;;;9.70;84.68;102751.81;5049600;28;19974;-50
2022/04/30 07:09:28;;;;;;;9.10;2.90;;;;;;;9.79;83.45;102758.56;5049490;28;20049;-50
2022/04/30 07:11:57;;;;;;;7.65;3.10;;;;;;;9.93;83.40;102758.13;5052888;28;20114;-51
2022/04/30 07:14:26;;;;;;;7.05;2.90;;;;;;;10.01;82.83;102752.59;5052984;28;20037;-50
2022/04/30 07:16:54;;;;;;;5.55;2.83;;;;;;;10.19;82.72;102756.41;5052984;28;20041;-49
2022/04/30 07:19:22;;;;;;;8.45;2.85;;;;;;;10.47;79.19;102762.50;5052888;28;20060;-49
2022/04/30 07:21:51;;;;;;;6.10;2.70;;;;;;;10.61;78.53;102762.00;5053243;28;20048;-50
2022/04/30 07:24:19;;;;;;;6.82;3.05;;;;;;;10.80;77.54;102761.38;5053058;28;20041;-51
2022/04/30 07:26:47;;;;;;;7.40;2.70;;;;;;;11.06;77.27;102759.56;5052996;28;20170;-48
2022/04/30 07:29:17;;;;;;;7.78;2.95;;;;;;;11.35;75.39;102755.00;5052845;28;20103;-51
2022/04/30 07:31:46;;;;;;;5.13;2.58;;;;;;;11.51;73.84;102750.84;5052808;28;20047;-50
2022/04/30 07:34:14;;;;;;;6.25;2.35;;;;;;;11.45;71.98;102745.81;5049284;28;20131;-52
2022/04/30 07:36:42;;;;;;;6.20;2.63;;;;;;;11.63;71.41;102754.75;5049481;28;20041;-52
2022/04/30 07:39:11;;;;;;;6.80;2.63;;;;;;;11.69;69.68;102753.69;5050956;28;20049;-54
2022/04/30 07:41:39;;;;;;;7.30;2.40;;;;;;;11.90;67.52;102754.59;5047788;28;20752;-48
2022/04/30 07:44:08;;;;;;;7.30;2.78;;;;;;;11.94;68.00;102749.19;5051165;28;20052;-51
2022/04/30 07:46:38;;;;;;;5.60;2.50;;;;;;;12.09;67.52;102752.09;5052467;28;20442;-50
2022/04/30 07:49:06;;;;;;;6.35;2.45;;;;;;;12.18;66.91;102751.72;5052567;28;20463;-51
2022/04/30 07:51:41;;;;;;;6.97;2.97;;;;;;;12.10;66.66;102749.38;5051926;28;20057;-49
2022/04/30 07:54:10;;;;;;;11.40;2.70;;;;;;;12.18;65.03;102741.16;5049786;28;20543;-53
2022/04/30 07:56:39;;;;;;;6.30;2.03;;;;;;;12.33;64.20;102747.59;5047619;28;20447;-50
2022/04/30 07:59:07;;;;;;;5.13;1.92;;;;;;;12.66;62.45;102742.59;5051435;28;20053;-48
2022/04/30 08:01:37;;;;;;;3.08;1.98;;;;;;;12.81;59.06;102735.78;5052145;28;20127;-51
2022/04/30 08:04:06;;;;;;;6.28;2.10;;;;;;;12.84;58.81;102734.81;5050035;28;20103;-52
2022/04/30 08:06:34;;;;;;;6.18;2.33;;;;;;;13.02;59.91;102733.16;5048488;28;20551;-51
2022/04/30 08:09:03;;;;;;;4.80;2.15;;;;;;;12.99;59.00;102734.13;5050598;28;20059;-52
2022/04/30 08:11:31;;;;;;;7.07;2.30;;;;;;;13.29;59.94;102733.66;5051889;28;20068;-53
2022/04/30 08:13:59;;;;;;;6.38;2.40;;;;;;;13.41;59.28;102728.75;5052155;28;20127;-51
2022/04/30 08:16:29;;;;;;;5.57;2.50;;;;;;;13.55;59.14;102726.28;5050370;28;20075;-53
2022/04/30 08:18:59;;;;;;;4.88;2.10;;;;;;;13.52;56.98;102722.03;5050336;28;20044;-52
2022/04/30 08:21:27;;;;;;;7.05;2.55;;;;;;;13.39;58.89;102723.53;5051860;28;20123;-52
2022/04/30 08:23:56;;;;;;;9.50;2.75;;;;;;;13.44;59.46;102724.19;5051855;28;20055;-52
2022/04/30 08:26:24;;;;;;;5.43;2.42;;;;;;;13.15;57.65;102725.50;5046852;28;20045;-52
2022/04/30 08:28:52;;;;;;;6.60;2.50;;;;;;;13.04;58.09;102725.16;5048158;28;20073;-49
2022/04/30 08:31:21;;;;;;;8.25;2.85;;;;;;;12.78;62.18;102720.09;5051990;28;20111;-50
2022/04/30 08:33:49;;;;;;;8.82;3.55;;;;;;;12.91;63.88;102722.19;5051984;28;20492;-51
2022/04/30 08:36:19;;;;;;;8.85;3.83;;;;;;;12.80;66.04;102717.38;5051182;28;20531;-50
2022/04/30 08:38:47;;;;;;;9.13;5.05;;;;;;;12.49;67.96;102730.16;5050900;28;20057;-50
2022/04/30 08:41:16;;;;;;;8.30;4.30;;;;;;;12.31;68.37;102729.19;5047004;28;20051;-51
2022/04/30 08:43:48;;;;;;;8.20;4.20;;;;;;;11.99;69.48;102723.47;5048450;28;20084;-50
2022/04/30 08:46:19;;;;;;;11.50;4.40;;;;;;;11.99;69.90;102726.09;5051835;28;20044;-54
2022/04/30 08:48:49;;;;;;;10.25;5.07;;;;;;;12.15;69.70;102726.31;5051706;28;20041;-53
2022/04/30 08:51:17;;;;;;;9.65;3.92;;;;;;;12.39;68.75;102725.34;5051540;28;20136;-52
2022/04/30 08:53:47;;;;;;;9.52;3.70;;;;;;;12.42;68.03;102728.72;5051700;28;20049;-52
2022/04/30 08:56:15;;;;;;;8.48;4.53;;;;;;;12.33;68.32;102719.41;5049920;28;20053;-52
2022/04/30 08:58:43;;;;;;;8.27;3.80;;;;;;;12.43;67.80;102729.56;5051722;28;20045;-54
2022/04/30 09:01:12;;;;;;;6.15;3.53;;;;;;;12.67;67.57;102728.50;5048959;28;20040;-52
2022/04/30 09:03:41;;;;;;;10.30;3.70;;;;;;;12.56;67.09;102724.63;5048513;28;20376;-53
2022/04/30 09:06:09;;;;;;;10.05;3.72;;;;;;;12.50;67.94;102721.34;5051237;28;20068;-51
2022/04/30 09:08:49;;;;;;;8.90;4.00;;;;;;;12.81;67.67;102716.47;5051438;28;20099;-50
2022/04/30 09:11:19;;;;;;;8.32;3.72;;;;;;;12.88;65.32;102714.41;5051365;28;20790;-50
2022/04/30 09:13:47;;;;;;;7.97;3.40;;;;;;;13.16;65.42;102714.84;5047789;28;20045;-49
2022/04/30 09:16:20;;;;;;;9.63;4.38;;;;;;;13.01;64.36;102707.66;5047465;28;20122;-52
2022/04/30 09:18:49;;;;;;;10.15;4.13;;;;;;;13.00;63.79;102708.56;5051656;28;20045;-51
2022/04/30 09:21:19;;;;;;;7.88;3.65;;;;;;;13.12;63.09;102696.59;5051382;28;20539;-51
2022/04/30 09:23:49;;;;;;;8.63;3.78;;;;;;;13.10;62.57;102706.34;5051241;28;20041;-49
2022/04/30 09:26:18;;;;;;;7.50;4.03;;;;;;;13.04;61.67;102704.03;5051190;28;20091;-49
2022/04/30 09:28:48;;;;;;;8.02;3.60;;;;;;;13.28;61.00;102712.56;5050997;28;20084;-52
2022/04/30 09:31:18;;;;;;;7.40;3.47;;;;;;;13.52;62.17;102700.88;5049930;28;20049;-52
2022/04/30 09:33:55;;;;;;;7.80;3.58;;;;;;;14.02;61.61;102704.59;5046713;28;20045;-51
2022/04/30 09:39:15;;;;;;;6.97;3.40;;;;;;;14.22;60.07;102688.63;5020079;28;20492;-49
2022/04/30 09:41:44;;;;;;;8.07;3.90;;;;;;;13.94;59.66;102687.41;5045527;28;20045;-52
2022/04/30 09:44:13;;;;;;;8.18;3.90;;;;;;;13.61;60.47;102688.16;5048577;28;20041;-55
2022/04/30 09:46:42;;;;;;;8.68;3.42;;;;;;;13.84;60.50;102690.50;5050865;28;20124;-52
2022/04/30 09:54:45;;;;;;;9.60;3.35;;;;;;;15.29;54.92;102684.69;5054727;28;20416;-54
2022/04/30 09:57:16;;;;;;;5.85;3.03;;;;;;;15.51;52.60;102681.69;5054568;28;20106;-50
2022/04/30 09:59:45;;;;;;;6.43;3.08;;;;;;;15.40;50.75;102684.09;5051508;28;20057;-51
2022/04/30 10:02:16;;;;;;;7.25;3.13;;;;;;;15.48;50.97;102670.41;5050398;28;20094;-52
2022/04/30 10:04:45;;;;;;;7.45;3.63;;;;;;;15.26;52.20;102671.63;5053862;28;20056;-48
2022/04/30 10:07:19;;;;;;;9.48;3.47;;;;;;;15.03;53.18;102667.59;5053946;28;20040;-53
2022/04/30 10:09:54;;;;;;;;;;;;;;;14.91;54.73;102671.78;5054925;28;20467;-52
2022/04/30 10:12:31;;;;;;;10.43;3.92;;;;;;;14.89;54.18;102678.97;5054069;28;19927;-53
2022/04/30 10:15:11;;;;;;;7.65;3.58;;;;;;;14.52;55.42;102676.47;5052967;28;20389;-52
2022/04/30 10:17:42;;;;;;;7.28;3.40;;;;;;;14.49;55.37;102670.47;5050566;28;20045;-48
2022/04/30 10:20:16;;;;;;;6.78;3.30;;;;;;;14.29;54.07;102669.72;5052375;28;20041;-53
2022/04/30 10:22:52;;;;;;;5.40;2.97;;;;;;;14.63;53.93;102672.41;5052885;28;20136;-51
2022/04/30 10:25:33;;;;;;;7.70;3.50;;;;;;;14.61;54.38;102675.09;5052341;28;20102;-51
2022/04/30 10:28:05;;;;;;;10.52;3.97;;;;;;;14.36;55.31;102673.75;5054048;28;20060;-52
2022/04/30 10:30:38;;;;;;;6.97;3.90;;;;;;;14.13;56.19;102679.41;5051977;28;20091;-48
2022/04/30 10:33:09;;;;;;;9.25;4.18;;;;;;;13.85;57.22;102673.72;5049879;28;20049;-51
2022/04/30 10:35:39;;;;;;;7.57;4.03;;;;;;;13.78;57.68;102679.38;5053550;28;20044;-51
2022/04/30 10:38:12;;;;;;;10.95;4.22;;;;;;;13.63;58.84;102671.28;5053632;28;20392;-48
2022/04/30 10:40:43;;;;;;;9.32;4.60;;;;;;;13.41;58.54;102673.25;5051666;28;20498;-51
2022/04/30 10:43:16;;;;;;;8.75;3.95;;;;;;;13.21;59.63;102663.59;5046923;28;20143;-50
2022/04/30 10:45:44;;;;;;;9.40;4.43;;;;;;;13.12;59.98;102660.44;5051889;28;20045;-49
2022/04/30 10:48:12;;;;;;;8.90;4.72;;;;;;;13.11;60.12;102664.03;5053020;28;20053;-50
2022/04/30 10:50:41;;;;;;;9.02;4.18;;;;;;;13.18;60.44;102669.88;5053035;28;20045;-51
2022/04/30 10:53:11;;;;;;;7.88;4.28;;;;;;;13.16;61.00;102662.03;5053219;28;20041;-50
2022/04/30 10:55:40;;;;;;;8.75;4.75;;;;;;;13.13;61.67;102656.91;5053379;28;20118;-48
2022/04/30 10:58:10;;;;;;;8.65;4.72;;;;;;;12.90;62.53;102662.38;5053413;28;20041;-49
2022/04/30 11:00:38;;;;;;;7.13;4.10;;;;;;;13.07;61.96;102653.69;5052833;28;20111;-52
2022/04/30 11:03:11;;;;;;;8.73;4.60;;;;;;;12.92;62.38;102650.81;5053232;28;20135;-50
2022/04/30 11:05:43;;;;;;;9.35;4.60;;;;;;;12.90;62.45;102654.44;5053200;28;20385;-52
2022/04/30 11:08:12;;;;;;;9.82;4.28;;;;;;;12.87;62.56;102655.47;5053178;28;20048;-50
2022/04/30 11:10:49;;;;;;;9.82;4.47;;;;;;;12.99;62.42;102657.53;5053197;28;20040;-50
2022/04/30 11:13:20;;;;;;;8.15;3.97;;;;;;;12.99;60.99;102656.66;5051678;28;20052;-51
2022/04/30 11:15:48;;;;;;;6.05;3.47;;;;;;;12.85;62.16;102652.88;5051372;28;20052;-51
2022/04/30 11:18:19;;;;;;;10.00;3.97;;;;;;;12.87;61.21;102647.56;5049388;28;20040;-51
2022/04/30 11:20:48;;;;;;;9.52;3.92;;;;;;;12.53;62.59;102657.00;5051665;28;20483;-52
2022/04/30 11:23:23;;;;;;;8.70;4.28;;;;;;;12.65;62.44;102653.81;5053140;28;20051;-51
2022/04/30 11:25:52;;;;;;;8.10;3.97;;;;;;;12.64;62.42;102648.59;5048085;28;20119;-52
2022/04/30 11:28:29;;;;;;;9.43;4.13;;;;;;;12.72;63.19;102650.88;5049033;28;20088;-48
2022/04/30 11:30:59;;;;;;;10.80;4.28;;;;;;;12.78;62.50;102651.47;5052788;28;20048;-50
2022/04/30 11:33:33;;;;;;;9.43;4.15;;;;;;;12.79;62.73;102649.69;5052963;28;20414;-53
2022/04/30 11:36:02;;;;;;;7.47;4.10;;;;;;;12.76;61.08;102649.81;5052774;28;20485;-51
2022/04/30 11:38:30;;;;;;;8.18;3.72;;;;;;;12.89;62.12;102643.03;5051560;28;20040;-52
2022/04/30 11:41:04;;;;;;;9.23;4.38;;;;;;;12.94;61.66;102641.06;5053001;28;20099;-52
2022/04/30 11:43:34;;;;;;;9.27;3.72;;;;;;;13.13;60.23;102632.25;5052714;28;20045;-52
2022/04/30 11:46:03;;;;;;;9.98;4.00;;;;;;;13.29;60.48;102640.31;5052536;28;20087;-53
2022/04/30 11:48:37;;;;;;;13.23;4.43;;;;;;;13.06;60.21;102629.06;5048859;28;20814;-50
2022/04/30 11:51:11;;;;;;;10.13;4.03;;;;;;;13.10;59.28;102635.03;5050330;28;20099;-49
2022/04/30 11:53:40;;;;;;;9.75;4.32;;;;;;;13.07;59.55;102630.75;5052253;28;20051;-50
2022/04/30 11:56:08;;;;;;;9.45;3.60;;;;;;;13.45;60.14;102627.25;5050933;28;20381;-49
2022/04/30 11:58:42;;;;;;;8.07;3.95;;;;;;;13.57;59.80;102621.34;5048692;28;20053;-51
2022/04/30 12:01:25;;;;;;;7.22;3.75;;;;;;;13.71;58.86;102620.66;5048249;28;20045;-49
2022/04/30 12:03:59;;;;;;;6.82;3.53;;;;;;;13.72;56.77;102617.06;5052106;28;20053;-52
2022/04/30 12:06:28;;;;;;;7.20;3.22;;;;;;;13.96;56.54;102620.28;5052416;28;20504;-51
2022/04/30 12:08:57;;;;;;;7.10;3.53;;;;;;;14.20;55.69;102619.91;5050807;28;20055;-51